createdAt,value
2022-08-23T00:02:25.871Z,17.19
2022-08-23T00:05:08.721Z,17.07
2022-08-23T00:07:40.302Z,16.86
2022-08-23T00:10:14.751Z,16.71
2022-08-23T00:12:43.983Z,16.68
2022-08-23T00:15:14.904Z,16.18
2022-08-23T00:17:42.890Z,16.23
2022-08-23T00:20:14.424Z,16.27
2022-08-23T00:22:42.303Z,16.20
2022-08-23T00:25:11.874Z,16.27
2022-08-23T00:27:40.241Z,16.41
2022-08-23T00:30:10.110Z,16.75
2022-08-23T00:32:39.737Z,16.66
2022-08-23T00:35:11.384Z,16.40
2022-08-23T00:37:39.269Z,16.02
2022-08-23T00:40:12.365Z,16.62
2022-08-23T00:43:06.045Z,16.55
2022-08-23T00:46:02.899Z,16.04
2022-08-23T00:48:34.673Z,16.31
2022-08-23T00:51:17.267Z,15.83
2022-08-23T00:53:50.929Z,16.29
2022-08-23T00:56:21.459Z,16.43
2022-08-23T00:58:49.729Z,16.39
2022-08-23T01:01:18.627Z,16.10
2022-08-23T01:03:57.084Z,16.24
2022-08-23T01:06:38.755Z,16.62
2022-08-23T01:09:14.274Z,16.68
2022-08-23T01:12:11.651Z,16.48
2022-08-23T01:14:45.120Z,16.48
2022-08-23T01:17:44.034Z,16.56
2022-08-23T01:20:15.838Z,16.61
2022-08-23T01:23:10.565Z,16.54
2022-08-23T01:25:39.065Z,16.69
2022-08-23T01:28:06.725Z,16.76
2022-08-23T01:30:35.780Z,16.91
2022-08-23T01:33:07.445Z,16.45
2022-08-23T01:35:49.230Z,16.72
2022-08-23T01:38:17.309Z,16.45
2022-08-23T01:40:47.327Z,16.53
2022-08-23T01:43:15.927Z,16.35
2022-08-23T01:45:43.681Z,16.46
2022-08-23T01:48:14.354Z,16.21
2022-08-23T01:50:42.455Z,16.58
2022-08-23T01:53:11.193Z,16.21
2022-08-23T01:55:43.440Z,16.51
2022-08-23T01:58:12.696Z,16.46
2022-08-23T02:00:42.643Z,16.61
2022-08-23T02:03:13.937Z,16.63
2022-08-23T02:05:42.909Z,16.55
2022-08-23T02:08:33.963Z,16.39
2022-08-23T02:11:17.357Z,16.51
2022-08-23T02:13:48.659Z,16.35
2022-08-23T02:17:03.852Z,16.71
2022-08-23T02:19:38.951Z,16.35
2022-08-23T02:22:09.030Z,16.47
2022-08-23T02:24:45.375Z,16.66
2022-08-23T02:27:15.810Z,16.66
2022-08-23T02:29:47.376Z,16.71
2022-08-23T02:32:16.701Z,16.54
2022-08-23T02:34:44.895Z,16.35
2022-08-23T02:37:25.487Z,16.41
2022-08-23T02:39:53.211Z,16.64
2022-08-23T02:42:21.516Z,16.65
2022-08-23T02:44:49.365Z,16.61
2022-08-23T02:47:18.685Z,16.42
2022-08-23T02:49:56.958Z,16.46
2022-08-23T02:52:25.150Z,16.31
2022-08-23T02:54:53.292Z,16.37
2022-08-23T02:57:27.950Z,16.51
2022-08-23T03:00:02.173Z,15.94
2022-08-23T03:02:31.447Z,16.16
2022-08-23T03:04:59.400Z,16.38
2022-08-23T03:07:27.730Z,16.57
2022-08-23T03:09:55.109Z,16.19
2022-08-23T03:12:22.991Z,16.48
2022-08-23T03:14:53.963Z,16.47
2022-08-23T03:17:23.002Z,16.40
2022-08-23T03:19:52.501Z,16.48
2022-08-23T03:22:23.363Z,16.30
2022-08-23T03:24:52.674Z,16.48
2022-08-23T03:27:21.740Z,16.51
2022-08-23T03:29:49.149Z,16.35
2022-08-23T03:32:16.801Z,16.51
2022-08-23T03:34:45.703Z,16.56
2022-08-23T03:37:13.561Z,16.34
2022-08-23T03:39:41.861Z,16.58
2022-08-23T03:42:10.980Z,16.41
2022-08-23T03:44:41.135Z,16.34
2022-08-23T03:47:12.409Z,16.56
2022-08-23T03:49:43.240Z,16.47
2022-08-23T03:52:12.084Z,16.50
2022-08-23T03:54:40.511Z,16.34
2022-08-23T03:57:11.725Z,16.35
2022-08-23T03:59:40.761Z,16.18
2022-08-23T04:02:11.608Z,16.35
2022-08-23T04:04:39.745Z,16.41
2022-08-23T04:07:31.798Z,16.45
2022-08-23T04:09:59.466Z,16.31
2022-08-23T04:12:33.644Z,16.32
2022-08-23T04:17:51.424Z,16.18
2022-08-23T04:20:20.954Z,16.49
2022-08-23T04:22:59.211Z,16.34
2022-08-23T04:25:34.751Z,16.31
2022-08-23T04:28:05.651Z,16.34
2022-08-23T04:30:35.103Z,16.40
2022-08-23T04:33:10.734Z,16.52
2022-08-23T04:35:41.803Z,16.45
2022-08-23T04:38:24.161Z,16.53
2022-08-23T04:41:13.254Z,16.25
2022-08-23T04:43:41.689Z,16.48
2022-08-23T04:46:15.034Z,16.11
2022-08-23T04:48:46.176Z,16.60
2022-08-23T04:51:15.519Z,16.45
2022-08-23T04:53:44.228Z,16.69
2022-08-23T04:56:30.755Z,16.68
2022-08-23T04:58:58.559Z,16.53
2022-08-23T05:01:27.790Z,16.41
2022-08-23T05:03:56.230Z,16.61
2022-08-23T05:06:25.944Z,16.70
2022-08-23T05:08:54.418Z,16.98
2022-08-23T05:11:22.553Z,17.06
2022-08-23T05:13:51.522Z,16.97
2022-08-23T05:16:20.707Z,17.14
2022-08-23T05:19:03.678Z,16.91
2022-08-23T05:21:33.898Z,16.71
2022-08-23T05:24:03.882Z,17.08
2022-08-23T05:26:35.423Z,17.16
2022-08-23T05:29:06.049Z,17.38
2022-08-23T05:31:42.823Z,17.06
2022-08-23T05:34:11.518Z,17.44
2022-08-23T05:36:51.636Z,17.49
2022-08-23T05:39:40.099Z,17.36
2022-08-23T05:42:13.452Z,17.35
2022-08-23T05:44:43.422Z,17.63
2022-08-23T05:47:15.730Z,17.64
2022-08-23T05:50:16.010Z,17.61
2022-08-23T05:52:45.870Z,17.65
2022-08-23T05:55:17.130Z,17.64
2022-08-23T05:58:00.972Z,17.70
2022-08-23T06:00:37.245Z,17.16
2022-08-23T06:03:07.064Z,17.83
2022-08-23T06:05:41.840Z,17.77
2022-08-23T06:08:11.088Z,17.76
2022-08-23T06:10:42.139Z,17.81
2022-08-23T06:13:23.665Z,17.93
2022-08-23T06:15:51.428Z,17.97
2022-08-23T06:18:20.070Z,17.77
2022-08-23T06:20:48.185Z,18.07
2022-08-23T06:23:21.292Z,17.95
2022-08-23T06:25:49.505Z,17.75
2022-08-23T06:28:19.674Z,18.14
2022-08-23T06:30:58.244Z,17.93
2022-08-23T06:33:33.136Z,17.84
2022-08-23T06:36:24.347Z,17.99
2022-08-23T06:39:06.321Z,18.19
2022-08-23T06:42:37.680Z,18.19
2022-08-23T06:45:04.198Z,18.24
2022-08-23T06:47:42.976Z,18.08
2022-08-23T06:50:10.878Z,18.25
2022-08-23T06:53:09.971Z,18.01
2022-08-23T06:56:08.078Z,18.04
2022-08-23T06:59:06.751Z,18.17
2022-08-23T07:02:07.480Z,18.29
2022-08-23T07:04:56.223Z,17.96
2022-08-23T07:07:37.576Z,18.12
2022-08-23T07:10:11.000Z,18.36
2022-08-23T07:12:42.614Z,18.38
2022-08-23T07:15:13.141Z,18.32
2022-08-23T07:17:44.106Z,18.41
2022-08-23T07:20:13.429Z,18.42
2022-08-23T07:22:44.656Z,18.38
2022-08-23T07:25:13.851Z,18.24
2022-08-23T07:27:44.791Z,18.41
2022-08-23T07:30:16.669Z,18.40
2022-08-23T07:32:46.237Z,18.50
2022-08-23T07:35:24.374Z,18.48
2022-08-23T07:37:56.351Z,18.41
2022-08-23T07:40:27.731Z,18.37
2022-08-23T07:42:58.356Z,18.26
2022-08-23T07:45:27.645Z,18.33
2022-08-23T07:48:02.375Z,18.23
2022-08-23T07:50:35.549Z,18.40
2022-08-23T07:53:04.208Z,18.31
2022-08-23T07:55:31.809Z,18.23
2022-08-23T07:58:21.713Z,18.42
2022-08-23T08:01:12.625Z,18.52
2022-08-23T08:03:49.187Z,18.26
2022-08-23T08:06:26.796Z,18.42
2022-08-23T08:08:56.262Z,18.56
2022-08-23T08:11:32.146Z,18.65
2022-08-23T08:14:08.174Z,18.54
2022-08-23T08:16:45.765Z,18.42
2022-08-23T08:19:20.013Z,18.57
2022-08-23T08:22:06.264Z,18.63
2022-08-23T08:25:13.572Z,18.55
2022-08-23T08:27:42.704Z,18.41
2022-08-23T08:30:12.181Z,18.50
2022-08-23T08:32:46.948Z,18.55
2022-08-23T08:35:16.150Z,18.70
2022-08-23T08:37:46.131Z,18.18
2022-08-23T08:40:25.613Z,18.03
2022-08-23T08:43:19.929Z,18.74
2022-08-23T08:46:09.186Z,19.01
2022-08-23T08:48:47.674Z,19.14
2022-08-23T08:51:51.859Z,19.07
2022-08-23T08:54:25.566Z,18.99
2022-08-23T08:57:01.418Z,19.30
2022-08-23T08:59:48.529Z,19.00
2022-08-23T09:02:31.978Z,19.52
2022-08-23T09:05:21.826Z,19.63
2022-08-23T09:08:20.938Z,19.72
2022-08-23T09:10:59.352Z,19.78
2022-08-23T09:14:04.374Z,19.98
2022-08-23T09:16:55.827Z,19.99
2022-08-23T09:19:25.640Z,20.01
2022-08-23T09:22:02.535Z,20.16
2022-08-23T09:24:32.106Z,20.11
2022-08-23T09:27:12.816Z,20.31
2022-08-23T09:29:53.581Z,20.36
2022-08-23T09:32:33.252Z,20.52
2022-08-23T09:35:09.625Z,20.58
2022-08-23T09:38:04.060Z,20.65
2022-08-23T09:40:38.878Z,20.35
2022-08-23T09:43:22.875Z,20.65
2022-08-23T09:45:50.497Z,20.56
2022-08-23T09:48:40.475Z,20.51
2022-08-23T09:51:23.163Z,20.39
2022-08-23T09:54:33.995Z,20.85
2022-08-23T09:57:06.777Z,20.64
2022-08-23T09:59:41.175Z,20.84
2022-08-23T10:02:27.249Z,21.03
2022-08-23T10:05:05.766Z,20.96
2022-08-23T10:08:03.310Z,20.75
2022-08-23T10:10:53.645Z,21.17
2022-08-23T10:13:31.072Z,21.19
2022-08-23T10:16:12.346Z,21.28
2022-08-23T10:19:20.592Z,21.34
2022-08-23T10:22:07.547Z,21.01
2022-08-23T10:25:28.307Z,21.28
2022-08-23T10:28:48.500Z,21.33
2022-08-23T10:31:38.365Z,21.39
2022-08-23T10:34:30.069Z,21.11
2022-08-23T10:37:22.903Z,21.47
2022-08-23T10:40:32.565Z,21.58
2022-08-23T10:43:37.452Z,21.52
2022-08-23T10:46:08.261Z,21.50
2022-08-23T10:48:51.608Z,21.73
2022-08-23T10:51:32.367Z,21.80
2022-08-23T10:54:34.492Z,21.60
2022-08-23T10:57:06.662Z,21.29
2022-08-23T10:59:37.259Z,21.44
2022-08-23T11:02:36.542Z,21.93
2022-08-23T11:05:41.326Z,21.80
2022-08-23T11:08:47.493Z,21.41
2022-08-23T11:11:43.501Z,22.10
2022-08-23T11:14:28.870Z,21.18
2022-08-23T11:17:01.850Z,21.29
2022-08-23T11:20:04.623Z,22.00
2022-08-23T11:22:54.859Z,22.33
2022-08-23T11:25:48.455Z,22.46
2022-08-23T11:28:30.572Z,22.59
2022-08-23T11:31:19.798Z,22.64
2022-08-23T11:33:54.240Z,22.38
2022-08-23T11:36:27.426Z,22.47
2022-08-23T11:39:00.211Z,22.85
2022-08-23T11:41:31.354Z,22.87
2022-08-23T11:44:30.228Z,23.03
2022-08-23T11:47:07.678Z,22.61
2022-08-23T11:49:50.028Z,23.14
2022-08-23T11:52:48.508Z,23.13
2022-08-23T11:55:29.066Z,22.62
2022-08-23T11:58:14.321Z,22.69
2022-08-23T12:01:09.016Z,22.82
2022-08-23T12:03:52.192Z,22.94
2022-08-23T12:06:40.593Z,23.00
2022-08-23T12:09:32.405Z,23.06
2022-08-23T12:12:01.204Z,23.14
2022-08-23T12:14:32.246Z,23.15
2022-08-23T12:17:04.084Z,23.15
2022-08-23T12:19:45.300Z,23.19
2022-08-23T12:22:19.585Z,23.20
2022-08-23T12:25:03.052Z,23.23
2022-08-23T12:27:32.211Z,23.31
2022-08-23T12:30:18.419Z,23.20
2022-08-23T12:33:06.224Z,23.40
2022-08-23T12:36:00.215Z,23.41
2022-08-23T12:38:28.987Z,23.49
2022-08-23T12:40:57.941Z,23.39
2022-08-23T12:43:30.247Z,23.74
2022-08-23T12:46:01.671Z,23.78
2022-08-23T12:48:33.715Z,23.53
2022-08-23T12:51:11.222Z,23.36
2022-08-23T12:53:45.339Z,23.83
2022-08-23T12:56:32.396Z,23.77
2022-08-23T12:59:05.405Z,23.24
2022-08-23T13:01:39.462Z,23.54
2022-08-23T13:04:12.535Z,23.56
2022-08-23T13:06:44.918Z,23.39
2022-08-23T13:09:21.113Z,23.93
2022-08-23T13:11:49.907Z,24.11
2022-08-23T13:14:34.448Z,24.08
2022-08-23T13:17:37.387Z,24.11
2022-08-23T13:20:08.646Z,24.10
2022-08-23T13:22:39.535Z,23.90
2022-08-23T13:25:28.655Z,23.96
2022-08-23T13:28:00.333Z,24.09
2022-08-23T13:30:34.199Z,24.14
2022-08-23T13:33:07.069Z,24.13
2022-08-23T13:35:47.237Z,24.12
2022-08-23T13:38:25.776Z,24.17
2022-08-23T13:41:28.644Z,23.95
2022-08-23T13:43:56.947Z,23.79
2022-08-23T13:46:32.403Z,24.13
2022-08-23T13:49:00.689Z,23.85
2022-08-23T13:51:37.062Z,23.86
2022-08-23T13:54:08.119Z,23.91
2022-08-23T13:56:48.748Z,23.85
2022-08-23T13:59:31.618Z,23.82
2022-08-23T14:02:06.972Z,23.72
2022-08-23T14:04:35.455Z,23.69
2022-08-23T14:07:03.109Z,23.64
2022-08-23T14:09:31.093Z,23.37
2022-08-23T14:12:03.074Z,23.63
2022-08-23T14:14:34.297Z,23.69
2022-08-23T14:17:04.270Z,23.51
2022-08-23T14:22:21.595Z,23.50
2022-08-23T14:24:50.130Z,23.47
2022-08-23T14:27:18.645Z,23.34
2022-08-23T14:29:47.219Z,23.25
2022-08-23T14:32:15.796Z,23.40
2022-08-23T14:34:44.350Z,23.26
2022-08-23T14:38:02.798Z,23.42
2022-08-23T14:40:02.827Z,23.19
2022-08-23T14:42:31.947Z,23.28
2022-08-23T14:45:00.021Z,23.27
2022-08-23T14:47:28.401Z,23.60
2022-08-23T14:49:56.520Z,23.33
2022-08-23T14:52:24.546Z,23.14
2022-08-23T14:54:52.864Z,23.17
2022-08-23T14:57:20.907Z,23.57
2022-08-23T14:59:49.016Z,23.58
2022-08-23T15:02:22.244Z,23.42
2022-08-23T15:04:49.610Z,23.41
2022-08-23T15:07:19.174Z,23.38
2022-08-23T15:09:54.772Z,23.23
2022-08-23T15:15:21.993Z,23.28
2022-08-23T15:17:59.234Z,23.62
2022-08-23T15:20:32.530Z,23.34
2022-08-23T15:23:01.431Z,23.71
2022-08-23T15:25:31.435Z,23.64
2022-08-23T15:27:59.210Z,23.40
2022-08-23T15:30:27.486Z,23.31
2022-08-23T15:32:57.963Z,23.38
2022-08-23T15:35:27.427Z,23.44
2022-08-23T15:37:57.095Z,23.46
2022-08-23T15:40:26.022Z,23.39
2022-08-23T15:42:54.631Z,23.28
2022-08-23T15:45:22.504Z,23.49
2022-08-23T15:47:54.570Z,22.95
2022-08-23T15:50:25.688Z,22.86
2022-08-23T15:52:55.311Z,23.40
2022-08-23T15:55:24.366Z,23.29
2022-08-23T15:57:54.810Z,22.98
2022-08-23T16:00:24.565Z,22.78
2022-08-23T16:03:28.024Z,23.05
2022-08-23T16:05:44.287Z,23.07
2022-08-23T16:08:23.231Z,23.12
2022-08-23T16:10:51.668Z,23.09
2022-08-23T16:13:20.372Z,23.06
2022-08-23T16:15:48.844Z,23.01
2022-08-23T16:18:16.385Z,22.14
2022-08-23T16:20:45.399Z,22.88
2022-08-23T16:23:13.158Z,22.93
2022-08-23T16:25:42.369Z,22.86
2022-08-23T16:28:09.704Z,22.74
2022-08-23T16:30:38.075Z,22.63
2022-08-23T16:33:05.879Z,22.52
2022-08-23T16:35:34.497Z,22.31
2022-08-23T16:38:01.895Z,22.52
2022-08-23T16:40:29.874Z,22.64
2022-08-23T16:42:57.583Z,22.01
2022-08-23T16:45:26.268Z,22.43
2022-08-23T16:47:54.443Z,22.44
2022-08-23T16:50:22.594Z,22.30
2022-08-23T16:52:50.180Z,22.42
2022-08-23T16:55:19.524Z,22.28
2022-08-23T16:57:47.056Z,22.28
2022-08-23T17:00:15.882Z,22.34
2022-08-23T17:02:44.376Z,22.09
2022-08-23T17:05:16.801Z,22.04
2022-08-23T17:07:44.468Z,22.25
2022-08-23T17:10:13.504Z,22.17
2022-08-23T17:12:46.950Z,22.04
2022-08-23T17:15:18.993Z,21.95
2022-08-23T17:17:49.220Z,21.98
2022-08-23T17:20:18.370Z,21.51
2022-08-23T17:22:47.138Z,21.82
2022-08-23T17:25:15.323Z,21.78
2022-08-23T17:27:46.200Z,21.78
2022-08-23T17:30:16.986Z,21.65
2022-08-23T17:32:47.891Z,21.60
2022-08-23T17:35:20.184Z,21.62
2022-08-23T17:37:48.760Z,21.46
2022-08-23T17:40:21.354Z,21.31
2022-08-23T17:42:51.309Z,21.30
2022-08-23T17:45:19.599Z,21.08
2022-08-23T17:47:47.952Z,21.31
2022-08-23T17:50:17.597Z,21.12
2022-08-23T17:52:45.917Z,21.27
2022-08-23T17:55:18.468Z,21.16
2022-08-23T17:57:47.210Z,21.18
2022-08-23T18:00:17.420Z,21.18
2022-08-23T18:02:45.400Z,20.93
2022-08-23T18:05:13.610Z,21.10
2022-08-23T18:07:43.386Z,21.12
2022-08-23T18:10:13.919Z,21.02
2022-08-23T18:12:42.437Z,20.48
2022-08-23T18:15:10.919Z,21.12
2022-08-23T18:17:39.732Z,20.88
2022-08-23T18:20:10.033Z,20.93
2022-08-23T18:22:40.048Z,21.09
2022-08-23T18:25:09.594Z,20.99
2022-08-23T18:27:56.257Z,20.88
2022-08-23T18:30:24.107Z,20.96
2022-08-23T18:32:55.285Z,20.89
2022-08-23T18:35:26.307Z,20.69
2022-08-23T18:37:54.604Z,20.58
2022-08-23T18:40:27.552Z,20.54
2022-08-23T18:42:55.347Z,20.20
2022-08-23T18:45:24.569Z,20.72
2022-08-23T18:47:52.734Z,20.61
2022-08-23T18:50:20.351Z,20.58
2022-08-23T18:52:48.308Z,20.32
2022-08-23T18:55:17.782Z,20.23
2022-08-23T18:57:46.278Z,20.29
2022-08-23T19:00:17.509Z,20.07
2022-08-23T19:02:46.514Z,20.28
2022-08-23T19:05:14.195Z,20.32
2022-08-23T19:07:45.547Z,20.23
2022-08-23T19:10:18.373Z,20.25
2022-08-23T19:12:54.288Z,20.05
2022-08-23T19:15:23.056Z,20.08
2022-08-23T19:17:53.328Z,19.59
2022-08-23T19:20:21.897Z,19.92
2022-08-23T19:22:54.099Z,20.15
2022-08-23T19:25:21.812Z,20.01
2022-08-23T19:27:49.395Z,20.31
2022-08-23T19:30:17.882Z,20.09
2022-08-23T19:32:45.375Z,20.13
2022-08-23T19:35:14.546Z,20.15
2022-08-23T19:37:43.770Z,20.00
2022-08-23T19:40:12.539Z,20.29
2022-08-23T19:42:42.143Z,20.08
2022-08-23T19:45:11.528Z,20.19
2022-08-23T19:47:40.710Z,20.10
2022-08-23T19:50:10.452Z,20.10
2022-08-23T19:52:38.284Z,20.12
2022-08-23T19:55:10.941Z,20.33
2022-08-23T19:57:38.785Z,20.08
2022-08-23T20:00:19.033Z,19.91
2022-08-23T20:02:48.559Z,19.50
2022-08-23T20:05:18.370Z,19.93
2022-08-23T20:07:46.759Z,20.27
2022-08-23T20:10:15.029Z,20.05
2022-08-23T20:12:45.794Z,20.10
2022-08-23T20:15:14.597Z,20.21
2022-08-23T20:17:42.262Z,20.26
2022-08-23T20:20:12.023Z,20.38
2022-08-23T20:22:57.984Z,20.19
2022-08-23T20:25:25.931Z,20.05
2022-08-23T20:27:53.066Z,19.92
2022-08-23T20:30:21.386Z,19.72
2022-08-23T20:32:48.918Z,19.90
2022-08-23T20:35:17.091Z,19.90
2022-08-23T20:37:44.261Z,19.94
2022-08-23T20:40:12.457Z,19.74
2022-08-23T20:42:40.094Z,19.90
2022-08-23T20:45:08.720Z,19.93
2022-08-23T20:47:37.828Z,19.88
2022-08-23T20:50:06.402Z,19.90
2022-08-23T20:52:34.801Z,19.90
2022-08-23T20:55:03.772Z,19.88
2022-08-23T20:57:38.822Z,19.91
2022-08-23T21:00:08.624Z,19.73
2022-08-23T21:02:38.546Z,19.37
2022-08-23T21:05:06.997Z,19.77
2022-08-23T21:07:35.379Z,19.63
2022-08-23T21:10:05.086Z,19.63
2022-08-23T21:12:32.680Z,19.78
2022-08-23T21:15:00.315Z,19.77
2022-08-23T21:17:27.769Z,19.77
2022-08-23T21:19:56.312Z,19.78
2022-08-23T21:22:24.148Z,19.80
2022-08-23T21:25:00.055Z,19.47
2022-08-23T21:27:27.772Z,19.58
2022-08-23T21:29:56.052Z,19.81
2022-08-23T21:32:23.563Z,19.82
2022-08-23T21:34:54.055Z,19.56
2022-08-23T21:37:21.611Z,19.79
2022-08-23T21:39:49.262Z,19.62
2022-08-23T21:42:19.645Z,19.69
2022-08-23T21:44:49.606Z,19.77
2022-08-23T21:47:19.891Z,19.71
2022-08-23T21:49:47.601Z,19.87
2022-08-23T21:52:16.019Z,19.60
2022-08-23T21:54:45.746Z,19.70
2022-08-23T21:57:13.516Z,19.70
2022-08-23T21:59:44.325Z,19.49
2022-08-23T22:02:11.799Z,19.44
2022-08-23T22:04:39.250Z,19.69
2022-08-23T22:07:07.262Z,19.49
2022-08-23T22:09:35.146Z,19.79
2022-08-23T22:12:03.359Z,19.28
2022-08-23T22:14:32.282Z,18.76
2022-08-23T22:17:01.064Z,19.64
2022-08-23T22:19:31.025Z,19.04
2022-08-23T22:21:58.936Z,19.60
2022-08-23T22:24:26.558Z,18.95
2022-08-23T22:26:55.733Z,19.60
2022-08-23T22:29:23.420Z,19.61
2022-08-23T22:31:51.363Z,19.52
2022-08-23T22:34:18.881Z,19.62
2022-08-23T22:36:52.380Z,19.32
2022-08-23T22:39:23.661Z,19.62
2022-08-23T22:41:52.061Z,19.65
2022-08-23T22:44:23.004Z,19.22
2022-08-23T22:46:51.279Z,19.63
2022-08-23T22:49:19.093Z,19.62
2022-08-23T22:51:49.084Z,19.49
2022-08-23T22:54:23.435Z,19.63
2022-08-23T22:56:53.398Z,19.39
2022-08-23T22:59:25.866Z,19.59
2022-08-23T23:01:58.242Z,19.16
2022-08-23T23:04:27.574Z,19.24
2022-08-23T23:06:56.292Z,19.01
2022-08-23T23:09:24.614Z,19.60
2022-08-23T23:11:53.162Z,19.62
2022-08-23T23:14:24.142Z,19.43
2022-08-23T23:16:53.333Z,19.44
2022-08-23T23:19:41.682Z,19.47
2022-08-23T23:22:10.302Z,19.57
2022-08-23T23:24:39.766Z,19.60
2022-08-23T23:27:07.777Z,19.66
2022-08-23T23:29:35.660Z,19.64
2022-08-23T23:32:03.896Z,19.62
2022-08-23T23:34:31.874Z,19.67
2022-08-23T23:37:00.623Z,19.46
2022-08-23T23:39:28.798Z,19.67
2022-08-23T23:41:57.638Z,19.66
2022-08-23T23:44:30.928Z,19.79
2022-08-23T23:47:01.831Z,19.71
2022-08-23T23:49:33.193Z,19.65
2022-08-23T23:52:03.761Z,19.53
2022-08-23T23:54:31.973Z,19.47
2022-08-23T23:57:00.315Z,19.51
2022-08-23T23:59:27.983Z,19.59
